createdAt,value
2019-02-23T00:00:03.243Z,1033.57
2019-02-23T00:00:29.355Z,1033.58
2019-02-23T00:00:55.461Z,1033.56
2019-02-23T00:01:21.564Z,1033.57
2019-02-23T00:01:47.667Z,1033.6
2019-02-23T00:02:13.776Z,1033.59
2019-02-23T00:02:39.905Z,1033.65
2019-02-23T00:03:06.010Z,1033.58
2019-02-23T00:03:32.121Z,1033.59
2019-02-23T00:03:58.220Z,1033.58
2019-02-23T00:04:24.321Z,1033.58
2019-02-23T00:04:50.429Z,1033.64
2019-02-23T00:05:16.527Z,1033.61
2019-02-23T00:05:42.629Z,1033.66
2019-02-23T00:06:08.765Z,1033.61
2019-02-23T00:06:36.843Z,1033.63
2019-02-23T00:07:02.951Z,1033.65
2019-02-23T00:07:29.051Z,1033.65
2019-02-23T00:07:55.192Z,1033.65
2019-02-23T00:08:21.294Z,1033.67
2019-02-23T00:08:47.452Z,1033.62
2019-02-23T00:09:13.559Z,1033.67
2019-02-23T00:09:39.669Z,1033.7
2019-02-23T00:10:05.767Z,1033.71
2019-02-23T00:10:31.879Z,1033.7
2019-02-23T00:10:57.983Z,1033.7
2019-02-23T00:11:24.097Z,1033.73
2019-02-23T00:11:50.203Z,1033.71
2019-02-23T00:12:16.309Z,1033.75
2019-02-23T00:12:42.416Z,1033.78
2019-02-23T00:13:08.518Z,1033.75
2019-02-23T00:13:34.620Z,1033.79
2019-02-23T00:14:00.728Z,1033.82
2019-02-23T00:14:26.858Z,1033.8
2019-02-23T00:14:52.959Z,1033.8
2019-02-23T00:15:19.065Z,1033.8
2019-02-23T00:15:45.172Z,1033.8
2019-02-23T00:16:11.310Z,1033.77
2019-02-23T00:16:37.421Z,1033.75
2019-02-23T00:17:03.522Z,1033.77
2019-02-23T00:17:29.623Z,1033.76
2019-02-23T00:17:55.736Z,1033.74
2019-02-23T00:18:22.836Z,1033.75
2019-02-23T00:18:48.977Z,1033.74
2019-02-23T00:19:24.326Z,1033.69
2019-02-23T00:19:43.226Z,1033.7
2019-02-23T00:20:09.317Z,1033.71
2019-02-23T00:20:35.461Z,1033.67
2019-02-23T00:21:01.568Z,1033.67
2019-02-23T00:21:27.669Z,1033.67
2019-02-23T00:21:53.777Z,1033.68
2019-02-23T00:22:19.890Z,1033.66
2019-02-23T00:22:46.017Z,1033.68
2019-02-23T00:23:12.122Z,1033.68
2019-02-23T00:23:38.229Z,1033.67
2019-02-23T00:24:04.331Z,1033.63
2019-02-23T00:24:30.438Z,1033.66
2019-02-23T00:24:56.548Z,1033.71
2019-02-23T00:25:22.647Z,1033.71
2019-02-23T00:25:48.753Z,1033.7
2019-02-23T00:26:14.886Z,1033.68
2019-02-23T00:26:40.991Z,1033.72
2019-02-23T00:27:07.089Z,1033.7
2019-02-23T00:27:33.197Z,1033.71
2019-02-23T00:27:59.299Z,1033.69
2019-02-23T00:28:25.407Z,1033.65
2019-02-23T00:28:51.510Z,1033.67
2019-02-23T00:29:17.614Z,1033.7
2019-02-23T00:29:43.726Z,1033.67
2019-02-23T00:30:09.828Z,1033.64
2019-02-23T00:30:35.931Z,1033.68
2019-02-23T00:31:02.042Z,1033.66
2019-02-23T00:31:28.152Z,1033.68
2019-02-23T00:31:54.307Z,1033.67
2019-02-23T00:32:20.416Z,1033.71
2019-02-23T00:32:46.520Z,1033.68
2019-02-23T00:33:12.624Z,1033.7
2019-02-23T00:33:38.729Z,1033.7
2019-02-23T00:34:04.834Z,1033.67
2019-02-23T00:34:30.975Z,1033.68
2019-02-23T00:34:57.079Z,1033.7
2019-02-23T00:35:23.184Z,1033.72
2019-02-23T00:35:49.284Z,1033.69
2019-02-23T00:36:15.391Z,1033.71
2019-02-23T00:36:41.499Z,1033.66
2019-02-23T00:37:07.606Z,1033.66
2019-02-23T00:37:33.702Z,1033.63
2019-02-23T00:37:59.841Z,1033.65
2019-02-23T00:38:25.974Z,1033.69
2019-02-23T00:38:52.101Z,1033.7
2019-02-23T00:39:18.211Z,1033.67
2019-02-23T00:39:44.315Z,1033.63
2019-02-23T00:40:10.443Z,1033.69
2019-02-23T00:40:36.552Z,1033.69
2019-02-23T00:41:02.649Z,1033.66
2019-02-23T00:41:28.758Z,1033.68
2019-02-23T00:41:54.895Z,1033.67
2019-02-23T00:42:20.995Z,1033.67
2019-02-23T00:42:47.104Z,1033.62
2019-02-23T00:43:13.208Z,1033.71
2019-02-23T00:43:39.317Z,1033.67
2019-02-23T00:44:05.446Z,1033.66
2019-02-23T00:44:31.549Z,1033.67
2019-02-23T00:44:57.658Z,1033.64
2019-02-23T00:45:23.764Z,1033.68
2019-02-23T00:45:49.865Z,1033.68
2019-02-23T00:46:15.976Z,1033.68
2019-02-23T00:46:42.079Z,1033.67
2019-02-23T00:47:08.177Z,1033.65
2019-02-23T00:47:34.309Z,1033.7
2019-02-23T00:48:00.413Z,1033.69
2019-02-23T00:48:26.516Z,1033.72
2019-02-23T00:48:52.624Z,1033.71
2019-02-23T00:49:18.758Z,1033.74
2019-02-23T00:49:46.842Z,1033.76
2019-02-23T00:50:12.944Z,1033.74
2019-02-23T00:50:39.048Z,1033.75
2019-02-23T00:51:05.152Z,1033.75
2019-02-23T00:51:31.260Z,1033.83
2019-02-23T00:51:57.369Z,1033.83
2019-02-23T00:52:23.475Z,1033.79
2019-02-23T00:52:49.584Z,1033.79
2019-02-23T00:53:15.691Z,1033.79
2019-02-23T00:53:41.802Z,1033.77
2019-02-23T00:54:07.914Z,1033.82
2019-02-23T00:54:34.046Z,1033.8
2019-02-23T00:55:00.382Z,1033.78
2019-02-23T00:55:26.283Z,1033.76
2019-02-23T00:55:52.389Z,1033.83
2019-02-23T00:56:18.494Z,1033.76
2019-02-23T00:56:44.594Z,1033.78
2019-02-23T00:57:10.698Z,1033.79
2019-02-23T00:57:36.805Z,1033.81
2019-02-23T00:58:02.913Z,1033.79
2019-02-23T00:58:29.021Z,1033.77
2019-02-23T00:58:55.118Z,1033.79
2019-02-23T00:59:21.226Z,1033.82
2019-02-23T00:59:47.360Z,1033.82
2019-02-23T01:00:13.475Z,1033.81
2019-02-23T01:00:39.568Z,1033.8
2019-02-23T01:01:05.740Z,1033.82
2019-02-23T01:01:31.793Z,1033.74
2019-02-23T01:01:57.923Z,1033.77
2019-02-23T01:02:24.029Z,1033.79
2019-02-23T01:02:50.141Z,1033.76
2019-02-23T01:03:16.236Z,1033.78
2019-02-23T01:03:42.336Z,1033.74
2019-02-23T01:04:08.450Z,1033.69
2019-02-23T01:04:34.554Z,1033.7
2019-02-23T01:05:00.651Z,1033.75
2019-02-23T01:05:26.760Z,1033.67
2019-02-23T01:05:52.866Z,1033.74
2019-02-23T01:06:18.961Z,1033.73
2019-02-23T01:06:45.067Z,1033.73
2019-02-23T01:07:11.204Z,1033.76
2019-02-23T01:07:37.303Z,1033.78
2019-02-23T01:08:03.412Z,1033.74
2019-02-23T01:08:29.515Z,1033.79
2019-02-23T01:08:55.625Z,1033.76
2019-02-23T01:09:21.722Z,1033.78
2019-02-23T01:09:47.826Z,1033.77
2019-02-23T01:10:13.938Z,1033.72
2019-02-23T01:10:40.555Z,1033.78
2019-02-23T01:11:08.662Z,1033.76
2019-02-23T01:11:34.772Z,1033.74
2019-02-23T01:12:00.905Z,1033.74
2019-02-23T01:12:27.028Z,1033.76
2019-02-23T01:12:53.141Z,1033.75
2019-02-23T01:13:19.247Z,1033.69
2019-02-23T01:13:45.352Z,1033.66
2019-02-23T01:14:11.484Z,1033.7
2019-02-23T01:14:37.587Z,1033.68
2019-02-23T01:15:03.697Z,1033.65
2019-02-23T01:15:29.799Z,1033.65
2019-02-23T01:15:58.389Z,1033.63
2019-02-23T01:16:22.033Z,1033.62
2019-02-23T01:16:48.140Z,1033.58
2019-02-23T01:17:14.247Z,1033.58
2019-02-23T01:17:40.353Z,1033.51
2019-02-23T01:18:06.462Z,1033.53
2019-02-23T01:18:32.570Z,1033.55
2019-02-23T01:18:58.673Z,1033.52
2019-02-23T01:19:24.797Z,1033.51
2019-02-23T01:19:52.898Z,1033.5
2019-02-23T01:20:18.985Z,1033.48
2019-02-23T01:20:45.088Z,1033.46
2019-02-23T01:21:11.190Z,1033.46
2019-02-23T01:21:37.326Z,1033.46
2019-02-23T01:22:03.438Z,1033.46
2019-02-23T01:22:29.542Z,1033.51
2019-02-23T01:22:55.643Z,1033.49
2019-02-23T01:23:21.750Z,1033.46
2019-02-23T01:23:47.849Z,1033.51
2019-02-23T01:24:13.965Z,1033.49
2019-02-23T01:24:40.074Z,1033.46
2019-02-23T01:25:06.175Z,1033.48
2019-02-23T01:25:32.304Z,1033.44
2019-02-23T01:25:58.423Z,1033.47
2019-02-23T01:26:24.583Z,1033.49
2019-02-23T01:26:50.688Z,1033.45
2019-02-23T01:27:16.784Z,1033.46
2019-02-23T01:27:42.891Z,1033.48
2019-02-23T01:28:09.022Z,1033.46
2019-02-23T01:28:35.124Z,1033.42
2019-02-23T01:29:01.228Z,1033.44
2019-02-23T01:29:27.365Z,1033.44
2019-02-23T01:29:53.468Z,1033.43
2019-02-23T01:30:19.570Z,1033.42
2019-02-23T01:30:47.089Z,1033.42
2019-02-23T01:31:13.194Z,1033.37
2019-02-23T01:31:39.295Z,1033.37
2019-02-23T01:32:05.404Z,1033.36
2019-02-23T01:32:31.505Z,1033.35
2019-02-23T01:32:57.608Z,1033.34
2019-02-23T01:33:23.720Z,1033.32
2019-02-23T01:33:49.821Z,1033.32
2019-02-23T01:34:15.927Z,1033.34
2019-02-23T01:34:42.036Z,1033.31
2019-02-23T01:35:08.139Z,1033.31
2019-02-23T01:35:34.245Z,1033.32
2019-02-23T01:36:00.345Z,1033.34
2019-02-23T01:36:26.457Z,1033.34
2019-02-23T01:36:52.561Z,1033.3
2019-02-23T01:37:18.671Z,1033.3
2019-02-23T01:37:44.793Z,1033.25
2019-02-23T01:38:10.902Z,1033.29
2019-02-23T01:38:37.009Z,1033.21
2019-02-23T01:39:03.110Z,1033.17
2019-02-23T01:39:29.218Z,1033.19
2019-02-23T01:39:55.329Z,1033.17
2019-02-23T01:40:21.429Z,1033.2
2019-02-23T01:40:47.540Z,1033.17
2019-02-23T01:41:13.645Z,1033.12
2019-02-23T01:41:39.749Z,1033.12
2019-02-23T01:42:05.852Z,1033.12
2019-02-23T01:42:31.958Z,1033.12
2019-02-23T01:42:58.064Z,1033.07
2019-02-23T01:43:24.171Z,1033.07
2019-02-23T01:43:50.280Z,1033.09
2019-02-23T01:44:16.384Z,1033.07
2019-02-23T01:44:42.495Z,1033.09
2019-02-23T01:45:08.596Z,1033.09
2019-02-23T01:45:42.016Z,1033.03
2019-02-23T01:46:01.823Z,1033.07
2019-02-23T01:46:27.928Z,1033.1
2019-02-23T01:46:54.025Z,1033.1
2019-02-23T01:47:20.166Z,1033.09
2019-02-23T01:47:46.307Z,1033.08
2019-02-23T01:48:12.417Z,1033.05
2019-02-23T01:48:38.521Z,1033.08
2019-02-23T01:49:04.625Z,1033.09
2019-02-23T01:49:30.729Z,1033.07
2019-02-23T01:49:59.033Z,1033.05
2019-02-23T01:50:24.919Z,1033.13
2019-02-23T01:50:51.024Z,1033.13
2019-02-23T01:51:17.137Z,1033.12
2019-02-23T01:51:43.238Z,1033.14
2019-02-23T01:52:09.344Z,1033.15
2019-02-23T01:52:35.455Z,1033.11
2019-02-23T01:53:01.557Z,1033.13
2019-02-23T01:53:27.662Z,1033.18
2019-02-23T01:53:53.773Z,1033.18
2019-02-23T01:54:19.882Z,1033.19
2019-02-23T01:54:46.012Z,1033.12
2019-02-23T01:55:12.140Z,1033.22
2019-02-23T01:55:38.248Z,1033.16
2019-02-23T01:56:04.356Z,1033.16
2019-02-23T01:56:30.462Z,1033.17
2019-02-23T01:56:56.558Z,1033.17
2019-02-23T01:57:22.668Z,1033.19
2019-02-23T01:57:48.774Z,1033.19
2019-02-23T01:58:14.877Z,1033.2
2019-02-23T01:58:40.983Z,1033.21
2019-02-23T01:59:07.095Z,1033.23
2019-02-23T01:59:33.217Z,1033.23
2019-02-23T01:59:59.302Z,1033.15
2019-02-23T02:00:25.408Z,1033.15
2019-02-23T02:00:51.511Z,1033.14
2019-02-23T02:01:17.614Z,1033.12
2019-02-23T02:01:43.753Z,1033.15
2019-02-23T02:02:09.858Z,1033.14
2019-02-23T02:02:35.990Z,1033.13
2019-02-23T02:03:02.122Z,1033.1
2019-02-23T02:03:28.277Z,1033.1
2019-02-23T02:03:54.392Z,1033.1
2019-02-23T02:04:20.492Z,1033.11
2019-02-23T02:04:46.599Z,1033.09
2019-02-23T02:05:12.707Z,1033.08
2019-02-23T02:05:38.817Z,1033.08
2019-02-23T02:06:04.966Z,1033.11
2019-02-23T02:06:33.557Z,1033.08
2019-02-23T02:06:58.207Z,1033.1
2019-02-23T02:07:24.313Z,1033.09
2019-02-23T02:07:50.449Z,1033.1
2019-02-23T02:08:16.549Z,1033.08
2019-02-23T02:08:42.661Z,1033.11
2019-02-23T02:09:08.766Z,1033.09
2019-02-23T02:09:34.897Z,1033.06
2019-02-23T02:10:01.007Z,1033.09
2019-02-23T02:10:27.114Z,1033.07
2019-02-23T02:10:53.223Z,1033.1
2019-02-23T02:11:19.368Z,1033.12
2019-02-23T02:11:45.510Z,1033.06
2019-02-23T02:12:11.615Z,1033.05
2019-02-23T02:12:37.722Z,1033.11
2019-02-23T02:13:03.827Z,1033.1
2019-02-23T02:13:29.932Z,1033.05
2019-02-23T02:13:56.040Z,1033.05
2019-02-23T02:14:22.149Z,1033.03
2019-02-23T02:14:48.248Z,1033.04
2019-02-23T02:15:14.362Z,1033.08
2019-02-23T02:15:40.497Z,1033.07
2019-02-23T02:16:06.631Z,1033.08
2019-02-23T02:16:32.744Z,1033.03
2019-02-23T02:16:58.841Z,1033.04
2019-02-23T02:17:24.946Z,1033.01
2019-02-23T02:17:51.058Z,1033.04
2019-02-23T02:18:17.165Z,1033.07
2019-02-23T02:18:43.271Z,1033.03
2019-02-23T02:19:09.400Z,1033.01
2019-02-23T02:19:35.501Z,1033.02
2019-02-23T02:20:10.331Z,1033.02
2019-02-23T02:20:29.726Z,1033.01
2019-02-23T02:20:55.858Z,1033.02
2019-02-23T02:21:21.964Z,1033.04
2019-02-23T02:21:48.076Z,1033.03
2019-02-23T02:22:14.176Z,1033.04
2019-02-23T02:22:40.282Z,1033.05
2019-02-23T02:23:06.414Z,1033.07
2019-02-23T02:23:32.547Z,1033.07
2019-02-23T02:23:58.652Z,1033.04
2019-02-23T02:24:24.765Z,1033.07
2019-02-23T02:24:50.895Z,1033.06
2019-02-23T02:25:17.021Z,1033.07
2019-02-23T02:25:43.127Z,1033.08
2019-02-23T02:26:09.257Z,1033.12
2019-02-23T02:26:35.360Z,1033.1
2019-02-23T02:27:01.474Z,1033.07
2019-02-23T02:27:27.575Z,1033.09
2019-02-23T02:27:53.683Z,1033.04
2019-02-23T02:28:19.790Z,1033.11
2019-02-23T02:28:45.896Z,1033.05
2019-02-23T02:29:12.004Z,1033.04
2019-02-23T02:29:38.108Z,1033.04
2019-02-23T02:30:04.213Z,1033.01
2019-02-23T02:30:30.344Z,1033.08
2019-02-23T02:30:56.452Z,1033.04
2019-02-23T02:31:22.586Z,1033.03
2019-02-23T02:31:48.694Z,1033.05
2019-02-23T02:32:14.827Z,1033.05
2019-02-23T02:32:40.938Z,1033
2019-02-23T02:33:07.073Z,1032.98
2019-02-23T02:33:33.210Z,1033
2019-02-23T02:33:59.312Z,1032.97
2019-02-23T02:34:25.449Z,1032.93
2019-02-23T02:34:51.554Z,1032.94
2019-02-23T02:35:17.686Z,1032.89
2019-02-23T02:35:43.892Z,1032.93
2019-02-23T02:36:10.000Z,1032.91
2019-02-23T02:36:36.099Z,1032.89
2019-02-23T02:37:02.212Z,1032.89
2019-02-23T02:37:28.313Z,1032.88
2019-02-23T02:37:54.415Z,1032.85
2019-02-23T02:38:20.515Z,1032.87
2019-02-23T02:38:46.615Z,1032.83
2019-02-23T02:39:12.730Z,1032.82
2019-02-23T02:39:38.837Z,1032.85
2019-02-23T02:40:04.940Z,1032.87
2019-02-23T02:40:31.102Z,1032.85
2019-02-23T02:40:57.209Z,1032.84
2019-02-23T02:41:23.313Z,1032.83
2019-02-23T02:41:49.449Z,1032.86
2019-02-23T02:42:15.556Z,1032.86
2019-02-23T02:42:41.655Z,1032.85
2019-02-23T02:43:07.791Z,1032.84
2019-02-23T02:43:33.893Z,1032.86
2019-02-23T02:43:59.994Z,1032.85
2019-02-23T02:44:26.130Z,1032.88
2019-02-23T02:44:52.238Z,1032.82
2019-02-23T02:45:18.341Z,1032.86
2019-02-23T02:45:44.478Z,1032.83
2019-02-23T02:46:10.578Z,1032.84
2019-02-23T02:46:36.714Z,1032.8
2019-02-23T02:47:02.828Z,1032.85
2019-02-23T02:47:28.969Z,1032.8
2019-02-23T02:47:55.144Z,1032.79
2019-02-23T02:48:21.256Z,1032.78
2019-02-23T02:48:47.353Z,1032.76
2019-02-23T02:49:13.466Z,1032.79
2019-02-23T02:49:39.583Z,1032.77
2019-02-23T02:50:05.695Z,1032.82
2019-02-23T02:50:34.773Z,1032.77
2019-02-23T02:51:00.912Z,1032.82
2019-02-23T02:51:27.039Z,1032.8
2019-02-23T02:51:53.209Z,1032.78
2019-02-23T02:52:19.342Z,1032.79
2019-02-23T02:52:45.478Z,1032.77
2019-02-23T02:53:11.588Z,1032.78
2019-02-23T02:53:37.694Z,1032.72
2019-02-23T02:54:03.794Z,1032.76
2019-02-23T02:54:29.906Z,1032.7
2019-02-23T02:54:56.016Z,1032.74
2019-02-23T02:55:22.139Z,1032.69
2019-02-23T02:55:48.243Z,1032.7
2019-02-23T02:56:14.354Z,1032.66
2019-02-23T02:56:40.467Z,1032.7
2019-02-23T02:57:06.622Z,1032.71
2019-02-23T02:57:32.754Z,1032.68
2019-02-23T02:57:58.862Z,1032.73
2019-02-23T02:58:24.965Z,1032.73
2019-02-23T02:58:51.073Z,1032.72
2019-02-23T02:59:17.187Z,1032.74
2019-02-23T02:59:43.281Z,1032.7
2019-02-23T03:00:09.407Z,1032.71
2019-02-23T03:00:35.517Z,1032.72
2019-02-23T03:01:01.672Z,1032.74
2019-02-23T03:01:27.778Z,1032.68
2019-02-23T03:01:53.887Z,1032.7
2019-02-23T03:02:19.988Z,1032.69
2019-02-23T03:02:46.095Z,1032.67
2019-02-23T03:03:12.199Z,1032.66
2019-02-23T03:03:38.316Z,1032.67
2019-02-23T03:04:04.446Z,1032.69
2019-02-23T03:04:30.579Z,1032.67
2019-02-23T03:04:56.689Z,1032.69
2019-02-23T03:05:22.846Z,1032.69
2019-02-23T03:05:48.954Z,1032.68
2019-02-23T03:06:15.057Z,1032.67
2019-02-23T03:06:41.161Z,1032.65
2019-02-23T03:07:07.292Z,1032.65
2019-02-23T03:07:33.398Z,1032.66
2019-02-23T03:07:59.504Z,1032.63
2019-02-23T03:08:25.611Z,1032.69
2019-02-23T03:08:51.709Z,1032.64
2019-02-23T03:09:17.820Z,1032.65
2019-02-23T03:09:43.962Z,1032.65
2019-02-23T03:10:10.096Z,1032.65
2019-02-23T03:10:36.218Z,1032.64
2019-02-23T03:11:02.329Z,1032.6
2019-02-23T03:11:28.458Z,1032.63
2019-02-23T03:11:54.584Z,1032.61
2019-02-23T03:12:20.729Z,1032.63
2019-02-23T03:12:46.839Z,1032.62
2019-02-23T03:13:12.937Z,1032.7
2019-02-23T03:13:39.040Z,1032.66
2019-02-23T03:14:05.151Z,1032.66
2019-02-23T03:14:31.288Z,1032.67
2019-02-23T03:14:57.391Z,1032.63
2019-02-23T03:15:23.491Z,1032.62
2019-02-23T03:15:49.627Z,1032.65
2019-02-23T03:16:15.738Z,1032.63
2019-02-23T03:16:41.876Z,1032.62
2019-02-23T03:17:08.015Z,1032.64
2019-02-23T03:17:34.118Z,1032.65
2019-02-23T03:18:00.228Z,1032.63
2019-02-23T03:18:26.382Z,1032.67
2019-02-23T03:18:52.484Z,1032.63
2019-02-23T03:19:18.638Z,1032.64
2019-02-23T03:19:44.773Z,1032.65
2019-02-23T03:20:10.900Z,1032.66
2019-02-23T03:20:38.018Z,1032.59
2019-02-23T03:21:04.128Z,1032.59
2019-02-23T03:21:30.235Z,1032.59
2019-02-23T03:21:56.336Z,1032.54
2019-02-23T03:22:22.442Z,1032.56
2019-02-23T03:22:48.545Z,1032.57
2019-02-23T03:23:14.651Z,1032.55
2019-02-23T03:23:40.751Z,1032.55
2019-02-23T03:24:06.864Z,1032.51
2019-02-23T03:24:32.963Z,1032.49
2019-02-23T03:24:59.071Z,1032.49
2019-02-23T03:25:25.177Z,1032.55
2019-02-23T03:25:51.279Z,1032.53
2019-02-23T03:26:17.386Z,1032.54
2019-02-23T03:26:43.518Z,1032.53
2019-02-23T03:27:09.630Z,1032.55
2019-02-23T03:27:35.738Z,1032.56
2019-02-23T03:28:01.840Z,1032.6
2019-02-23T03:28:28.013Z,1032.61
2019-02-23T03:28:54.148Z,1032.59
2019-02-23T03:29:20.258Z,1032.64
2019-02-23T03:29:46.357Z,1032.59
2019-02-23T03:30:12.501Z,1032.63
2019-02-23T03:30:38.630Z,1032.67
2019-02-23T03:31:04.799Z,1032.65
2019-02-23T03:31:30.977Z,1032.66
2019-02-23T03:31:57.119Z,1032.64
2019-02-23T03:32:23.253Z,1032.67
2019-02-23T03:32:49.393Z,1032.68
2019-02-23T03:33:15.528Z,1032.71
2019-02-23T03:33:41.665Z,1032.73
2019-02-23T03:34:07.844Z,1032.7
2019-02-23T03:34:33.974Z,1032.74
2019-02-23T03:35:00.306Z,1032.73
2019-02-23T03:35:26.225Z,1032.75
2019-02-23T03:35:52.326Z,1032.74
2019-02-23T03:36:18.440Z,1032.75
2019-02-23T03:36:44.544Z,1032.75
2019-02-23T03:37:10.648Z,1032.73
2019-02-23T03:37:36.787Z,1032.77
2019-02-23T03:38:02.892Z,1032.76
2019-02-23T03:38:29.003Z,1032.76
2019-02-23T03:38:55.137Z,1032.82
2019-02-23T03:39:21.276Z,1032.76
2019-02-23T03:39:47.381Z,1032.77
2019-02-23T03:40:13.504Z,1032.75
2019-02-23T03:40:39.617Z,1032.78
2019-02-23T03:41:05.719Z,1032.78
2019-02-23T03:41:31.880Z,1032.78
2019-02-23T03:41:57.990Z,1032.81
2019-02-23T03:42:24.118Z,1032.78
2019-02-23T03:42:50.254Z,1032.81
2019-02-23T03:43:16.395Z,1032.8
2019-02-23T03:43:42.500Z,1032.79
2019-02-23T03:44:08.604Z,1032.79
2019-02-23T03:44:34.736Z,1032.83
2019-02-23T03:45:00.834Z,1032.84
2019-02-23T03:45:26.941Z,1032.8
2019-02-23T03:45:53.051Z,1032.84
2019-02-23T03:46:19.147Z,1032.77
2019-02-23T03:46:45.256Z,1032.81
2019-02-23T03:47:11.379Z,1032.83
2019-02-23T03:47:37.481Z,1032.82
2019-02-23T03:48:03.622Z,1032.79
2019-02-23T03:48:29.749Z,1032.77
2019-02-23T03:48:55.851Z,1032.79
2019-02-23T03:49:21.966Z,1032.8
2019-02-23T03:49:48.064Z,1032.78
2019-02-23T03:50:14.179Z,1032.81
2019-02-23T03:50:48.609Z,1032.78
2019-02-23T03:51:08.390Z,1032.81
2019-02-23T03:51:34.573Z,1032.78
2019-02-23T03:52:00.706Z,1032.77
2019-02-23T03:52:26.811Z,1032.77
2019-02-23T03:52:52.917Z,1032.75
2019-02-23T03:53:19.076Z,1032.78
2019-02-23T03:53:45.185Z,1032.73
2019-02-23T03:54:11.287Z,1032.78
2019-02-23T03:54:37.421Z,1032.78
2019-02-23T03:55:03.533Z,1032.78
2019-02-23T03:55:29.693Z,1032.76
2019-02-23T03:55:55.793Z,1032.77
2019-02-23T03:56:21.922Z,1032.78
2019-02-23T03:56:48.035Z,1032.76
2019-02-23T03:57:14.149Z,1032.73
2019-02-23T03:57:40.248Z,1032.79
2019-02-23T03:58:06.375Z,1032.77
2019-02-23T03:58:32.533Z,1032.77
2019-02-23T03:58:58.648Z,1032.75
2019-02-23T03:59:24.750Z,1032.74
2019-02-23T03:59:50.884Z,1032.73
2019-02-23T04:00:16.989Z,1032.71
2019-02-23T04:00:43.097Z,1032.7
2019-02-23T04:01:09.196Z,1032.73
2019-02-23T04:01:35.330Z,1032.69
2019-02-23T04:02:01.436Z,1032.68
2019-02-23T04:02:27.582Z,1032.69
2019-02-23T04:02:53.715Z,1032.7
2019-02-23T04:03:19.901Z,1032.77
2019-02-23T04:03:46.008Z,1032.77
2019-02-23T04:04:12.123Z,1032.79
2019-02-23T04:04:38.227Z,1032.82
2019-02-23T04:05:04.331Z,1032.83
2019-02-23T04:05:30.431Z,1032.82
2019-02-23T04:05:56.564Z,1032.83
2019-02-23T04:06:22.669Z,1032.82
2019-02-23T04:06:48.781Z,1032.8
2019-02-23T04:07:14.884Z,1032.79
2019-02-23T04:07:41.015Z,1032.8
2019-02-23T04:08:07.120Z,1032.79
2019-02-23T04:08:33.255Z,1032.77
2019-02-23T04:08:59.351Z,1032.76
2019-02-23T04:09:25.629Z,1032.79
2019-02-23T04:09:51.721Z,1032.75
2019-02-23T04:10:17.828Z,1032.73
2019-02-23T04:10:43.933Z,1032.7
2019-02-23T04:11:10.041Z,1032.75
2019-02-23T04:11:36.148Z,1032.75
2019-02-23T04:12:02.245Z,1032.75
2019-02-23T04:12:28.378Z,1032.78
2019-02-23T04:12:54.476Z,1032.74
2019-02-23T04:13:20.620Z,1032.79
2019-02-23T04:13:46.720Z,1032.86
2019-02-23T04:14:12.828Z,1032.9
2019-02-23T04:14:38.934Z,1032.87
2019-02-23T04:15:05.064Z,1032.87
2019-02-23T04:15:31.208Z,1032.89
2019-02-23T04:15:57.391Z,1032.87
2019-02-23T04:16:23.502Z,1032.9
2019-02-23T04:16:49.607Z,1032.87
2019-02-23T04:17:15.736Z,1032.9
2019-02-23T04:17:41.845Z,1032.89
2019-02-23T04:18:07.982Z,1032.94
2019-02-23T04:18:34.108Z,1032.96
2019-02-23T04:19:00.216Z,1032.95
2019-02-23T04:19:26.325Z,1032.97
2019-02-23T04:19:52.435Z,1032.98
2019-02-23T04:20:18.536Z,1032.98
2019-02-23T04:20:44.678Z,1033.01
2019-02-23T04:21:12.783Z,1033
2019-02-23T04:21:38.892Z,1033.05
2019-02-23T04:22:04.992Z,1033.04
2019-02-23T04:22:31.128Z,1033.03
2019-02-23T04:22:57.228Z,1033.05
2019-02-23T04:23:23.327Z,1033
2019-02-23T04:23:49.435Z,1033.04
2019-02-23T04:24:16.363Z,1033.02
2019-02-23T04:24:42.462Z,1033.07
2019-02-23T04:25:08.606Z,1033.03
2019-02-23T04:25:34.724Z,1033.05
2019-02-23T04:26:00.832Z,1033.08
2019-02-23T04:26:26.936Z,1033.07
2019-02-23T04:26:53.076Z,1033.07
2019-02-23T04:27:19.225Z,1033.07
2019-02-23T04:27:45.491Z,1033.13
2019-02-23T04:28:11.571Z,1033.12
2019-02-23T04:28:37.704Z,1033.09
2019-02-23T04:29:03.801Z,1033.15
2019-02-23T04:29:29.910Z,1033.13
2019-02-23T04:29:57.000Z,1033.13
2019-02-23T04:30:23.130Z,1033.16
2019-02-23T04:30:49.238Z,1033.18
2019-02-23T04:31:15.387Z,1033.18
2019-02-23T04:31:41.493Z,1033.2
2019-02-23T04:32:07.620Z,1033.18
2019-02-23T04:32:33.750Z,1033.24
2019-02-23T04:32:59.850Z,1033.2
2019-02-23T04:33:25.958Z,1033.22
2019-02-23T04:33:52.090Z,1033.26
2019-02-23T04:34:18.228Z,1033.24
2019-02-23T04:34:44.357Z,1033.23
2019-02-23T04:35:10.492Z,1033.21
2019-02-23T04:35:36.582Z,1033.24
2019-02-23T04:36:02.724Z,1033.2
2019-02-23T04:36:28.868Z,1033.24
2019-02-23T04:36:54.961Z,1033.23
2019-02-23T04:37:21.070Z,1033.24
2019-02-23T04:37:47.197Z,1033.25
2019-02-23T04:38:13.360Z,1033.24
2019-02-23T04:38:39.467Z,1033.23
2019-02-23T04:39:05.579Z,1033.21
2019-02-23T04:39:31.732Z,1033.24
2019-02-23T04:39:57.863Z,1033.25
2019-02-23T04:40:23.992Z,1033.22
2019-02-23T04:40:50.101Z,1033.23
2019-02-23T04:41:16.233Z,1033.22
2019-02-23T04:41:42.366Z,1033.26
2019-02-23T04:42:08.466Z,1033.22
2019-02-23T04:42:34.575Z,1033.23
2019-02-23T04:43:00.676Z,1033.25
2019-02-23T04:43:26.815Z,1033.27
2019-02-23T04:43:53.934Z,1033.21
2019-02-23T04:44:20.065Z,1033.23
2019-02-23T04:44:46.275Z,1033.26
2019-02-23T04:45:12.303Z,1033.24
2019-02-23T04:45:38.400Z,1033.23
2019-02-23T04:46:04.542Z,1033.24
2019-02-23T04:46:30.653Z,1033.24
2019-02-23T04:46:56.747Z,1033.21
2019-02-23T04:47:22.858Z,1033.23
2019-02-23T04:47:48.960Z,1033.22
2019-02-23T04:48:15.064Z,1033.22
2019-02-23T04:48:41.172Z,1033.21
2019-02-23T04:49:07.329Z,1033.22
2019-02-23T04:49:34.418Z,1033.21
2019-02-23T04:50:00.578Z,1033.23
2019-02-23T04:50:26.788Z,1033.23
2019-02-23T04:50:52.896Z,1033.23
2019-02-23T04:51:20.029Z,1033.23
2019-02-23T04:51:46.136Z,1033.26
2019-02-23T04:52:12.239Z,1033.26
2019-02-23T04:52:38.373Z,1033.25
2019-02-23T04:53:04.502Z,1033.25
2019-02-23T04:53:30.610Z,1033.21
2019-02-23T04:53:56.723Z,1033.19
2019-02-23T04:54:22.820Z,1033.16
2019-02-23T04:54:48.930Z,1033.15
2019-02-23T04:55:15.071Z,1033.2
2019-02-23T04:55:41.173Z,1033.12
2019-02-23T04:56:07.283Z,1033.13
2019-02-23T04:56:33.421Z,1033.13
2019-02-23T04:56:59.581Z,1033.15
2019-02-23T04:57:25.687Z,1033.15
2019-02-23T04:57:51.791Z,1033.13
2019-02-23T04:58:17.899Z,1033.12
2019-02-23T04:58:44.005Z,1033.16
2019-02-23T04:59:10.175Z,1033.18
2019-02-23T04:59:36.282Z,1033.14
2019-02-23T05:00:02.393Z,1033.14
2019-02-23T05:00:28.501Z,1033.18
2019-02-23T05:00:55.478Z,1033.22
2019-02-23T05:01:21.586Z,1033.2
2019-02-23T05:01:47.688Z,1033.25
2019-02-23T05:02:13.790Z,1033.19
2019-02-23T05:02:39.919Z,1033.22
2019-02-23T05:03:06.047Z,1033.17
2019-02-23T05:03:32.238Z,1033.17
2019-02-23T05:03:58.343Z,1033.16
2019-02-23T05:04:24.509Z,1033.21
2019-02-23T05:04:50.610Z,1033.19
2019-02-23T05:05:16.717Z,1033.21
2019-02-23T05:05:42.851Z,1033.18
2019-02-23T05:06:08.978Z,1033.18
2019-02-23T05:06:35.145Z,1033.22
2019-02-23T05:07:01.277Z,1033.19
2019-02-23T05:07:27.377Z,1033.2
2019-02-23T05:07:53.508Z,1033.18
2019-02-23T05:08:19.610Z,1033.21
2019-02-23T05:08:45.717Z,1033.25
2019-02-23T05:09:11.842Z,1033.24
2019-02-23T05:09:37.952Z,1033.23
2019-02-23T05:10:04.094Z,1033.25
2019-02-23T05:10:30.224Z,1033.27
2019-02-23T05:10:56.326Z,1033.29
2019-02-23T05:11:22.461Z,1033.25
2019-02-23T05:11:51.337Z,1033.26
2019-02-23T05:12:15.686Z,1033.3
2019-02-23T05:12:41.858Z,1033.28
2019-02-23T05:13:07.984Z,1033.29
2019-02-23T05:13:34.091Z,1033.31
2019-02-23T05:14:00.190Z,1033.24
2019-02-23T05:14:26.342Z,1033.28
2019-02-23T05:14:52.445Z,1033.29
2019-02-23T05:15:18.555Z,1033.3
2019-02-23T05:15:44.655Z,1033.25
2019-02-23T05:16:10.770Z,1033.28
2019-02-23T05:16:36.869Z,1033.31
2019-02-23T05:17:02.978Z,1033.31
2019-02-23T05:17:29.082Z,1033.32